Aérodrome :
LOGIN :

S'inscrire | Disclaimer

   EN    FR    IT 

 










Légende :    VFR   VFR Marginal   IFR   IFR Intensif   IFR Très Intensif
Visi : 
Plafond : 
>= 8 km
>= 3000ft
5 à 8 km
1000 à 3000 ft
1500m à 5 km
500 à 1000 ft
800 à 1500m
200 à 500 ft
< 800m
< 200 ft
Symboles :   Orages  Brouillard  Fortes neiges  Fortes précipitations  Vent > 20 kt
SIGMETs :   Divers  Orages  Givrage  Turbulence  Onde Orograph.  Cendres Volcan.







- Altitude de l'aérodrome : 204 ft
- Code IATA : AGF
- Voir les cartes d'approche


LFBA - Agen

DERNIER METAR :
  • 190130Z AUTO 10004KT 3600 BR BKN002 OVC086 03/03 Q1015

METARs EXPIRÉS :
  • 190100Z AUTO 10005KT 4500 BR NSC 03/03 Q1015
  • 190030Z AUTO 11004KT 3700 BR NSC 03/02 Q1015
  • 190000Z AUTO 10003KT 4100 BR SCT002 OVC094 03/03 Q1015
  • 182330Z AUTO 10003KT 3900 BR NSC 03/03 Q1016
  • 182300Z AUTO 11004KT 4500 BR NSC 04/03 Q1016

TAF TAF LFBA
Valide du 18 à 18h jusqu'au 19 à 03h UTC


181700Z 1818/1903 VRB02KT 9999 SCT015 OVC070
Pas de NOTAMs connus pour ce terrain.



MET'MAP, la Météo Aéronautique d'un coup d'oeil ! - Copyright ORBIFLY Décembre 2007 - Disclaimer

ORBIFLY MET'MAP TEAM :

Programmation & Développement : Alexandra Zaïnal
Conception & Développement : Baudouin d'Aumeries
Co-Programmation & Développement : Marc-Olivier Méhu
Soutien technique & logistique : Manuel Goepfert

Contact : metmap@orbifly.com




SOURCES & CREDITS :

   NOAA